createdAt,value
2023-03-27T00:00:32.317Z,3.80
2023-03-27T00:03:17.819Z,3.70
2023-03-27T00:06:16.524Z,3.70
2023-03-27T00:09:03.765Z,3.80
2023-03-27T00:11:50.002Z,3.70
2023-03-27T00:14:36.391Z,3.60
2023-03-27T00:17:21.614Z,3.60
2023-03-27T00:20:07.872Z,3.50
2023-03-27T00:22:56.452Z,3.50
2023-03-27T00:25:47.788Z,3.50
2023-03-27T00:28:34.184Z,3.50
2023-03-27T00:31:22.049Z,3.60
2023-03-27T00:34:07.811Z,3.60
2023-03-27T00:36:53.767Z,3.80
2023-03-27T00:39:40.706Z,3.90
2023-03-27T00:42:26.385Z,3.90
2023-03-27T00:45:16.475Z,4.00
2023-03-27T00:48:05.538Z,4.00
2023-03-27T00:50:52.846Z,4.00
2023-03-27T00:53:44.150Z,4.00
2023-03-27T00:56:30.624Z,4.00
2023-03-27T00:59:23.238Z,4.00
2023-03-27T01:02:09.730Z,4.00
2023-03-27T01:04:56.708Z,4.00
2023-03-27T01:08:00.040Z,3.90
2023-03-27T01:10:58.131Z,3.80
2023-03-27T01:14:21.350Z,3.60
2023-03-27T01:17:13.028Z,3.50
2023-03-27T01:20:18.069Z,3.40
2023-03-27T01:23:36.399Z,3.30
2023-03-27T01:26:44.181Z,3.20
2023-03-27T01:29:53.672Z,3.20
2023-03-27T01:33:04.739Z,3.20
2023-03-27T01:36:13.654Z,3.30
2023-03-27T01:39:26.313Z,3.40
2023-03-27T01:42:18.397Z,3.40
2023-03-27T01:45:15.787Z,3.50
2023-03-27T01:48:31.517Z,3.60
2023-03-27T01:51:32.978Z,3.50
2023-03-27T01:54:21.899Z,3.30
2023-03-27T01:57:16.022Z,3.20
2023-03-27T02:00:19.463Z,3.10
2023-03-27T02:03:27.043Z,3.10
2023-03-27T02:06:26.603Z,3.20
2023-03-27T02:09:22.806Z,3.20
2023-03-27T02:12:20.158Z,3.20
2023-03-27T02:15:23.833Z,3.20
2023-03-27T02:18:19.159Z,3.20
2023-03-27T02:21:06.129Z,3.20
2023-03-27T02:23:51.642Z,3.10
2023-03-27T02:26:37.794Z,3.00
2023-03-27T02:29:41.885Z,2.80
2023-03-27T02:33:09.123Z,2.70
2023-03-27T02:36:21.602Z,2.60
2023-03-27T02:39:33.903Z,2.50
2023-03-27T02:42:42.033Z,2.40
2023-03-27T02:45:49.135Z,2.30
2023-03-27T02:49:05.227Z,2.20
2023-03-27T02:51:57.734Z,2.20
2023-03-27T02:54:49.101Z,2.20
2023-03-27T02:57:41.861Z,2.20
2023-03-27T03:00:49.056Z,2.30
2023-03-27T03:03:53.702Z,2.40
2023-03-27T03:06:42.152Z,2.50
2023-03-27T03:09:32.862Z,2.60
2023-03-27T03:12:18.450Z,2.60
2023-03-27T03:15:04.927Z,2.60
2023-03-27T03:17:52.885Z,2.60
2023-03-27T03:20:38.823Z,2.60
2023-03-27T03:23:24.730Z,2.50
2023-03-27T03:26:09.957Z,2.30
2023-03-27T03:29:01.714Z,2.10
2023-03-27T03:31:48.581Z,2.10
2023-03-27T03:34:36.516Z,2.00
2023-03-27T03:37:21.975Z,1.90
2023-03-27T03:40:12.112Z,1.80
2023-03-27T03:42:58.219Z,1.70
2023-03-27T03:45:46.394Z,1.60
2023-03-27T03:48:34.296Z,1.60
2023-03-27T03:51:19.783Z,1.50
2023-03-27T03:54:06.731Z,1.40
2023-03-27T03:56:52.479Z,1.40
2023-03-27T03:59:37.970Z,1.30
2023-03-27T04:02:29.821Z,1.30
2023-03-27T04:05:16.124Z,1.10
2023-03-27T04:08:02.691Z,1.20
2023-03-27T04:10:50.702Z,1.20
2023-03-27T04:13:36.284Z,1.20
2023-03-27T04:16:22.675Z,1.20
2023-03-27T04:19:12.844Z,1.20
2023-03-27T04:22:02.071Z,1.20
2023-03-27T04:24:50.557Z,1.20
2023-03-27T04:27:36.052Z,1.20
2023-03-27T04:30:23.800Z,1.10
2023-03-27T04:33:10.110Z,1.10
2023-03-27T04:36:05.581Z,1.20
2023-03-27T04:38:53.284Z,1.20
2023-03-27T04:41:38.787Z,1.20
2023-03-27T04:44:24.176Z,1.20
2023-03-27T04:47:09.768Z,1.20
2023-03-27T04:49:55.330Z,1.20
2023-03-27T04:52:42.204Z,1.20
2023-03-27T04:55:37.928Z,1.20
2023-03-27T04:58:25.816Z,1.20
2023-03-27T05:01:12.457Z,1.30
2023-03-27T05:03:58.107Z,1.50
2023-03-27T05:06:44.344Z,1.60
2023-03-27T05:09:29.898Z,1.70
2023-03-27T05:12:15.570Z,1.90
2023-03-27T05:15:04.031Z,2.00
2023-03-27T05:17:54.558Z,2.10
2023-03-27T05:20:40.364Z,2.20
2023-03-27T05:23:29.168Z,2.20
2023-03-27T05:26:14.668Z,2.00
2023-03-27T05:29:05.829Z,1.80
2023-03-27T05:31:52.057Z,1.70
2023-03-27T05:34:38.691Z,1.60
2023-03-27T05:37:26.303Z,1.50
2023-03-27T05:40:15.858Z,1.40
2023-03-27T05:43:01.614Z,1.40
2023-03-27T05:45:47.322Z,1.30
2023-03-27T05:48:33.020Z,1.30
2023-03-27T05:51:18.906Z,1.30
2023-03-27T05:54:04.690Z,1.20
2023-03-27T05:56:50.260Z,1.20
2023-03-27T05:59:35.980Z,1.20
2023-03-27T06:02:21.940Z,1.40
2023-03-27T06:05:10.724Z,1.30
2023-03-27T06:08:00.299Z,1.30
2023-03-27T06:10:46.043Z,1.30
2023-03-27T06:13:34.277Z,1.50
2023-03-27T06:16:20.937Z,1.60
2023-03-27T06:19:06.477Z,1.60
2023-03-27T06:21:51.765Z,1.70
2023-03-27T06:24:37.845Z,1.70
2023-03-27T06:27:23.254Z,1.90
2023-03-27T06:30:11.103Z,1.90
2023-03-27T06:32:58.990Z,1.90
2023-03-27T06:35:53.645Z,2.00
2023-03-27T06:38:39.888Z,2.00
2023-03-27T06:41:25.509Z,2.10
2023-03-27T06:44:11.525Z,2.20
2023-03-27T06:46:57.143Z,2.40
2023-03-27T06:49:47.657Z,2.70
2023-03-27T06:52:33.209Z,3.10
2023-03-27T06:55:20.251Z,3.40
2023-03-27T06:58:05.951Z,3.50
2023-03-27T07:00:53.314Z,3.70
2023-03-27T07:03:39.199Z,3.90
2023-03-27T07:06:26.852Z,3.70
2023-03-27T07:09:12.143Z,3.50
2023-03-27T07:11:57.638Z,3.50
2023-03-27T07:14:43.043Z,3.40
2023-03-27T07:17:38.192Z,3.40
2023-03-27T07:20:36.884Z,3.30
2023-03-27T07:23:22.114Z,3.10
2023-03-27T07:26:07.689Z,2.90
2023-03-27T07:28:52.893Z,3.00
2023-03-27T07:34:28.143Z,3.30
2023-03-27T07:37:14.610Z,3.40
2023-03-27T07:40:00.105Z,3.70
2023-03-27T07:42:46.114Z,3.80
2023-03-27T07:45:34.451Z,4.00
2023-03-27T07:48:20.346Z,4.10
2023-03-27T07:51:13.901Z,4.30
2023-03-27T15:32:53.274Z,13.90
2023-03-27T15:35:46.223Z,11.50
2023-03-27T15:38:57.214Z,9.90
2023-03-27T15:41:44.030Z,9.20
2023-03-27T15:44:32.844Z,9.00
2023-03-27T15:47:26.895Z,8.50
2023-03-27T15:50:20.362Z,7.90
2023-03-27T15:53:05.812Z,7.80
2023-03-27T15:55:55.477Z,7.60
2023-03-27T15:58:48.369Z,7.40
2023-03-27T16:01:45.292Z,7.30
2023-03-27T16:04:49.962Z,7.20
2023-03-27T16:07:47.173Z,6.80
2023-03-27T16:10:37.409Z,6.80
2023-03-27T16:13:27.541Z,6.50
2023-03-27T16:16:25.246Z,6.60
2023-03-27T16:19:14.722Z,6.40
2023-03-27T16:22:00.040Z,6.30
2023-03-27T16:24:47.831Z,6.30
2023-03-27T16:27:48.329Z,5.10
2023-03-27T16:30:39.760Z,4.70
2023-03-27T16:33:27.702Z,4.30
2023-03-27T16:36:19.856Z,4.30
2023-03-27T16:39:09.909Z,4.40
2023-03-27T16:41:58.220Z,4.30
2023-03-27T16:44:44.799Z,4.10
2023-03-27T16:47:30.486Z,3.90
2023-03-27T16:50:19.895Z,3.90
2023-03-27T16:53:05.635Z,3.80
2023-03-27T16:55:54.153Z,3.90
2023-03-27T16:58:40.107Z,3.90
2023-03-27T17:01:26.123Z,3.90
2023-03-27T17:04:12.191Z,4.00
2023-03-27T17:06:59.744Z,4.00
2023-03-27T17:09:47.838Z,4.00
2023-03-27T17:12:33.307Z,4.10
2023-03-27T17:15:18.850Z,4.00
2023-03-27T17:18:05.416Z,4.10
2023-03-27T17:20:54.499Z,4.10
2023-03-27T17:23:43.443Z,3.90
2023-03-27T17:26:31.840Z,3.80
2023-03-27T17:29:18.008Z,3.90
2023-03-27T17:32:03.579Z,3.70
2023-03-27T17:34:52.117Z,3.70
2023-03-27T17:37:37.565Z,3.80
2023-03-27T17:40:26.067Z,3.70
2023-03-27T17:43:12.470Z,3.70
2023-03-27T17:45:58.235Z,3.60
2023-03-27T17:48:44.682Z,3.60
2023-03-27T17:51:34.173Z,3.50
2023-03-27T17:54:22.336Z,3.50
2023-03-27T17:57:08.322Z,3.50
2023-03-27T17:59:54.383Z,3.30
2023-03-27T18:02:43.685Z,3.30
2023-03-27T18:05:29.294Z,3.20
2023-03-27T18:08:19.750Z,3.40
2023-03-27T18:11:10.115Z,3.20
2023-03-27T18:13:58.036Z,3.20
2023-03-27T18:16:43.590Z,3.00
2023-03-27T18:19:29.796Z,3.10
2023-03-27T18:22:17.666Z,3.10
2023-03-27T18:25:04.859Z,3.00
2023-03-27T18:27:50.592Z,3.10
2023-03-27T18:30:36.372Z,3.20
2023-03-27T18:33:24.621Z,3.40
2023-03-27T18:36:10.811Z,3.70
2023-03-27T18:38:57.167Z,3.80
2023-03-27T18:41:42.421Z,3.90
2023-03-27T18:44:27.907Z,3.90
2023-03-27T18:47:13.149Z,3.90
2023-03-27T18:50:00.762Z,3.70
2023-03-27T18:52:46.139Z,3.50
2023-03-27T18:55:32.387Z,3.20
2023-03-27T18:58:18.887Z,3.00
2023-03-27T19:01:09.547Z,2.80
2023-03-27T19:03:57.210Z,2.60
2023-03-27T19:06:46.465Z,2.50
2023-03-27T19:09:41.336Z,2.60
2023-03-27T19:12:30.049Z,2.50
2023-03-27T19:15:20.178Z,2.40
2023-03-27T19:18:06.702Z,2.50
2023-03-27T19:20:56.014Z,2.40
2023-03-27T19:23:42.259Z,2.50
2023-03-27T19:26:27.649Z,2.50
2023-03-27T19:29:15.410Z,2.50
2023-03-27T19:32:01.191Z,2.60
2023-03-27T19:34:47.383Z,2.60
2023-03-27T19:37:33.563Z,2.70
2023-03-27T19:40:18.975Z,2.80
2023-03-27T19:43:04.234Z,2.80
2023-03-27T19:46:14.978Z,2.70
2023-03-27T19:49:04.093Z,2.60
2023-03-27T19:51:49.295Z,2.40
2023-03-27T19:54:34.942Z,2.40
2023-03-27T19:57:20.992Z,2.40
2023-03-27T20:00:12.846Z,2.40
2023-03-27T20:02:58.630Z,2.50
2023-03-27T20:05:49.933Z,2.70
2023-03-27T20:08:38.317Z,2.80
2023-03-27T20:11:26.969Z,2.90
2023-03-27T20:14:13.216Z,2.90
2023-03-27T20:16:58.833Z,3.00
2023-03-27T20:19:49.786Z,3.00
2023-03-27T20:22:46.366Z,3.10
2023-03-27T20:25:40.814Z,3.10
2023-03-27T20:28:27.189Z,3.00
2023-03-27T20:31:13.194Z,3.00
2023-03-27T20:33:58.846Z,2.90
2023-03-27T20:36:47.064Z,2.70
2023-03-27T20:39:33.536Z,2.80
2023-03-27T20:42:23.146Z,2.60
2023-03-27T20:45:11.983Z,2.60
2023-03-27T20:48:03.908Z,2.60
2023-03-27T20:50:52.922Z,2.60
2023-03-27T20:53:41.352Z,2.60
2023-03-27T20:56:27.125Z,2.60
2023-03-27T20:59:15.090Z,2.50
2023-03-27T21:02:03.498Z,2.50
2023-03-27T21:04:49.945Z,2.50
2023-03-27T21:07:38.039Z,2.50
2023-03-27T21:10:24.910Z,2.60
2023-03-27T21:13:10.416Z,2.50
2023-03-27T21:15:56.374Z,2.50
2023-03-27T21:18:42.139Z,2.50
2023-03-27T21:21:33.185Z,2.40
2023-03-27T21:24:19.802Z,2.40
2023-03-27T21:27:07.512Z,2.40
2023-03-27T21:29:55.387Z,2.40
2023-03-27T21:32:41.301Z,2.40
2023-03-27T21:35:26.905Z,2.30
2023-03-27T21:38:13.866Z,2.30
2023-03-27T21:41:02.641Z,2.30
2023-03-27T21:43:48.146Z,2.30
2023-03-27T21:46:36.774Z,2.30
2023-03-27T21:49:23.104Z,2.30
2023-03-27T21:52:08.620Z,2.20
2023-03-27T21:55:02.927Z,2.10
2023-03-27T21:57:49.401Z,2.10
2023-03-27T22:00:34.884Z,2.10
2023-03-27T22:03:22.272Z,2.10
2023-03-27T22:06:13.410Z,2.20
2023-03-27T22:09:01.273Z,2.20
2023-03-27T22:11:48.974Z,2.30
2023-03-27T22:14:37.125Z,2.30
2023-03-27T22:17:25.365Z,2.30
2023-03-27T22:20:11.215Z,2.40
2023-03-27T22:22:57.107Z,2.50
2023-03-27T22:25:54.127Z,2.60
2023-03-27T22:28:39.274Z,2.60
2023-03-27T22:31:26.198Z,2.60
2023-03-27T22:34:14.649Z,2.60
2023-03-27T22:36:59.976Z,2.70
2023-03-27T22:39:47.387Z,2.60
2023-03-27T22:42:35.619Z,2.60
2023-03-27T22:45:23.360Z,2.60
2023-03-27T22:48:09.943Z,2.60
2023-03-27T22:50:57.005Z,2.80
2023-03-27T22:53:42.166Z,2.60
2023-03-27T22:56:27.646Z,2.60
2023-03-27T22:59:13.996Z,2.60
2023-03-27T23:01:59.604Z,2.60
2023-03-27T23:04:45.162Z,2.50
2023-03-27T23:07:31.681Z,2.60
2023-03-27T23:10:19.331Z,2.60
2023-03-27T23:13:05.178Z,2.70
2023-03-27T23:15:51.961Z,2.60
2023-03-27T23:18:38.030Z,2.50
2023-03-27T23:21:25.466Z,2.50
2023-03-27T23:24:10.988Z,2.60
2023-03-27T23:26:56.216Z,2.70
2023-03-27T23:29:41.877Z,2.60
2023-03-27T23:32:37.533Z,2.60
2023-03-27T23:35:23.471Z,2.60
2023-03-27T23:38:11.435Z,2.40
2023-03-27T23:40:58.346Z,2.40
2023-03-27T23:43:47.094Z,2.50
2023-03-27T23:46:35.167Z,2.60
2023-03-27T23:49:20.634Z,2.60
2023-03-27T23:52:06.557Z,2.60
2023-03-27T23:54:52.170Z,1.60
2023-03-27T23:57:37.788Z,1.00
